createdAt,value
2019-02-03T00:04:35.295Z,0.50
2019-02-03T00:09:40.341Z,0.30
2019-02-03T00:14:45.375Z,0.10
2019-02-03T00:19:50.445Z,-0.10
2019-02-03T00:24:55.471Z,-0.10
2019-02-03T00:30:00.503Z,-0.10
2019-02-03T00:35:05.839Z,0.10
2019-02-03T00:40:11.895Z,0.10
2019-02-03T00:45:17.083Z,0.10
2019-02-03T00:50:22.417Z,0.20
2019-02-03T00:55:27.474Z,0.10
2019-02-03T01:00:32.894Z,0.10
2019-02-03T01:05:37.959Z,0.20
2019-02-03T01:10:42.990Z,0.30
2019-02-03T01:15:48.041Z,0.40
2019-02-03T01:20:53.050Z,0.40
2019-02-03T01:25:58.085Z,0.50
2019-02-03T01:31:03.135Z,0.60
2019-02-03T01:36:08.152Z,0.70
2019-02-03T01:41:13.203Z,0.80
2019-02-03T01:46:18.254Z,0.80
2019-02-03T01:51:23.332Z,0.80
2019-02-03T01:56:28.766Z,0.90
2019-02-03T02:01:33.775Z,0.90
2019-02-03T02:06:38.804Z,1.00
2019-02-03T02:11:43.816Z,1.10
2019-02-03T02:16:48.840Z,1.20
2019-02-03T02:21:53.873Z,1.30
2019-02-03T02:26:58.891Z,1.20
2019-02-03T02:32:04.012Z,1.20
2019-02-03T02:37:09.007Z,1.10
2019-02-03T02:42:14.053Z,1.00
2019-02-03T02:47:19.106Z,1.10
2019-02-03T02:52:24.439Z,1.10
2019-02-03T02:57:29.444Z,1.00
2019-02-03T03:02:34.454Z,0.90
2019-02-03T03:07:39.482Z,1.00
2019-02-03T03:12:44.626Z,1.10
2019-02-03T03:17:49.923Z,1.20
2019-02-03T03:22:54.910Z,1.30
2019-02-03T03:27:59.923Z,1.30
2019-02-03T03:33:05.147Z,1.20
2019-02-03T03:38:10.135Z,1.10
2019-02-03T03:43:15.171Z,0.90
2019-02-03T03:48:20.605Z,0.80
2019-02-03T03:53:25.595Z,0.50
2019-02-03T03:58:30.597Z,0.30
2019-02-03T04:03:35.594Z,0.20
2019-02-03T04:08:45.212Z,0.00
2019-02-03T04:13:47.341Z,0.00
2019-02-03T04:18:52.356Z,-0.10
2019-02-03T04:23:57.355Z,0.10
2019-02-03T04:29:02.424Z,0.30
2019-02-03T04:34:07.423Z,0.40
2019-02-03T04:39:12.482Z,0.40
2019-02-03T04:44:18.376Z,0.50
2019-02-03T04:49:23.428Z,0.60
2019-02-03T04:54:28.456Z,0.70
2019-02-03T04:59:33.491Z,0.80
2019-02-03T05:04:38.485Z,0.80
2019-02-03T05:09:43.595Z,0.80
2019-02-03T05:14:48.619Z,0.60
2019-02-03T05:19:53.643Z,0.50
2019-02-03T05:24:58.657Z,0.40
2019-02-03T05:30:03.923Z,0.40
2019-02-03T05:35:08.936Z,0.40
2019-02-03T05:40:14.925Z,0.30
2019-02-03T05:45:20.725Z,0.40
2019-02-03T05:50:25.730Z,0.50
2019-02-03T05:55:30.727Z,0.50
2019-02-03T06:00:38.286Z,0.40
2019-02-03T06:05:43.310Z,0.20
2019-02-03T06:10:48.351Z,0.00
2019-02-03T06:15:53.432Z,-0.10
2019-02-03T06:20:58.459Z,-0.10
2019-02-03T06:26:03.691Z,-0.20
2019-02-03T06:31:13.992Z,-0.30
2019-02-03T06:36:17.917Z,-0.30
2019-02-03T06:41:22.931Z,-0.40
2019-02-03T06:46:46.623Z,-0.50
2019-02-03T06:51:51.795Z,-0.60
2019-02-03T06:56:56.840Z,-0.80
2019-02-03T07:02:01.898Z,-1.10
2019-02-03T07:07:07.115Z,-1.20
2019-02-03T07:12:12.131Z,-1.20
2019-02-03T07:17:17.447Z,-1.20
2019-02-03T07:22:22.534Z,-1.30
2019-02-03T07:27:27.907Z,-1.40
2019-02-03T07:32:32.968Z,-1.40
2019-02-03T07:37:38.045Z,-1.30
2019-02-03T07:42:43.051Z,-1.20
2019-02-03T07:47:48.064Z,-1.20
2019-02-03T07:52:53.207Z,-1.20
2019-02-03T07:57:58.215Z,-1.20
2019-02-03T08:03:03.276Z,-1.10
2019-02-03T08:08:08.351Z,-1.00
2019-02-03T08:13:13.784Z,-0.70
2019-02-03T08:18:18.849Z,-0.50
2019-02-03T08:23:23.913Z,-0.30
2019-02-03T08:28:29.024Z,-0.20
2019-02-03T08:33:34.083Z,0.10
2019-02-03T08:38:39.096Z,0.30
2019-02-03T08:43:44.094Z,0.50
2019-02-03T08:48:49.098Z,0.70
2019-02-03T08:53:54.099Z,0.80
2019-02-03T08:58:59.485Z,1.00
2019-02-03T09:04:04.604Z,1.10
2019-02-03T09:09:11.082Z,1.30
2019-02-03T09:14:16.061Z,1.40
2019-02-03T09:19:21.055Z,1.60
2019-02-03T09:24:26.087Z,1.70
2019-02-03T09:29:31.106Z,1.90
2019-02-03T09:34:36.171Z,2.00
2019-02-03T09:39:41.300Z,2.00
2019-02-03T09:44:46.303Z,2.10
2019-02-03T09:49:51.361Z,2.00
2019-02-03T09:54:56.869Z,2.10
2019-02-03T10:00:01.868Z,2.10
2019-02-03T10:05:07.441Z,2.20
2019-02-03T10:10:19.824Z,2.30
2019-02-03T10:15:24.897Z,2.40
2019-02-03T10:20:29.942Z,2.50
2019-02-03T10:25:34.967Z,2.60
2019-02-03T10:30:41.795Z,2.80
2019-02-03T10:35:46.866Z,3.20
2019-02-03T10:40:51.950Z,3.40
2019-02-03T10:45:57.156Z,3.20
2019-02-03T10:51:02.219Z,3.50
2019-02-03T10:56:07.234Z,3.40
2019-02-03T11:01:12.231Z,3.50
2019-02-03T11:06:17.216Z,3.50
2019-02-03T11:11:22.229Z,3.30
2019-02-03T11:16:27.227Z,3.50
2019-02-03T11:21:32.264Z,3.60
2019-02-03T11:26:37.695Z,3.60
2019-02-03T11:31:42.763Z,3.60
2019-02-03T11:36:47.862Z,3.70
2019-02-03T11:41:52.875Z,3.80
2019-02-03T11:46:57.879Z,3.90
2019-02-03T11:52:02.900Z,4.00
2019-02-03T11:57:07.915Z,4.10
2019-02-03T12:02:13.308Z,4.30
2019-02-03T12:07:18.312Z,4.30
2019-02-03T12:12:23.323Z,4.40
2019-02-03T12:17:28.316Z,4.50
2019-02-03T12:22:33.357Z,5.00
2019-02-03T12:27:38.374Z,5.40
2019-02-03T12:32:43.414Z,5.10
2019-02-03T12:37:48.683Z,5.10
2019-02-03T12:42:53.711Z,5.00
2019-02-03T12:47:58.748Z,5.00
2019-02-03T12:53:03.722Z,5.10
2019-02-03T12:58:08.728Z,5.20
2019-02-03T13:03:13.847Z,5.30
2019-02-03T13:08:18.865Z,5.40
2019-02-03T13:13:23.870Z,5.40
2019-02-03T13:18:28.888Z,5.50
2019-02-03T13:23:44.286Z,5.60
2019-02-03T13:28:40.523Z,5.70
2019-02-03T13:33:45.520Z,5.70
2019-02-03T13:38:50.608Z,5.50
2019-02-03T13:43:55.608Z,5.30
2019-02-03T13:49:00.605Z,5.10
2019-02-03T13:54:05.919Z,5.00
2019-02-03T13:59:10.913Z,5.00
2019-02-03T14:04:15.937Z,5.00
2019-02-03T14:09:20.932Z,5.10
2019-02-03T14:14:26.358Z,5.10
2019-02-03T14:19:31.567Z,5.20
2019-02-03T14:24:36.587Z,5.30
2019-02-03T14:29:41.605Z,5.40
2019-02-03T14:34:46.596Z,5.50
2019-02-03T14:39:51.638Z,5.50
2019-02-03T14:44:56.659Z,5.50
2019-02-03T14:50:01.691Z,5.60
2019-02-03T14:55:09.071Z,5.60
2019-02-03T15:00:20.588Z,5.90
2019-02-03T15:05:25.594Z,6.20
2019-02-03T15:10:30.612Z,6.40
2019-02-03T15:15:36.382Z,6.10
2019-02-03T15:20:41.492Z,5.70
2019-02-03T15:25:46.539Z,5.30
2019-02-03T15:30:51.946Z,5.00
2019-02-03T15:35:57.026Z,4.80
2019-02-03T15:41:02.427Z,4.50
2019-02-03T15:46:08.018Z,4.30
2019-02-03T15:51:13.176Z,4.10
2019-02-03T15:56:18.183Z,3.90
2019-02-03T16:01:23.176Z,3.70
2019-02-03T16:06:28.188Z,3.50
2019-02-03T16:11:33.322Z,3.30
2019-02-03T16:16:38.303Z,3.10
2019-02-03T16:21:43.331Z,2.90
2019-02-03T16:26:48.311Z,2.80
2019-02-03T16:31:53.325Z,2.70
2019-02-03T16:36:58.359Z,2.60
2019-02-03T16:42:03.648Z,2.50
2019-02-03T16:47:08.652Z,2.40
2019-02-03T16:52:13.715Z,2.20
2019-02-03T16:57:19.910Z,2.00
2019-02-03T17:02:25.031Z,1.90
2019-02-03T17:07:30.019Z,1.70
2019-02-03T17:12:35.252Z,1.40
2019-02-03T17:17:41.744Z,1.20
2019-02-03T17:22:46.799Z,0.90
2019-02-03T17:27:51.808Z,0.60
2019-02-03T17:32:56.819Z,0.50
2019-02-03T17:38:01.857Z,0.30
2019-02-03T17:43:06.882Z,0.10
2019-02-03T17:48:11.951Z,-0.10
2019-02-03T17:53:17.187Z,-0.10
2019-02-03T17:58:22.184Z,-0.10
2019-02-03T18:03:27.184Z,-0.10
2019-02-03T18:08:32.239Z,-0.10
2019-02-03T18:13:37.230Z,0.30
2019-02-03T18:18:42.233Z,0.60
2019-02-03T18:23:47.295Z,0.80
2019-02-03T18:28:52.280Z,0.70
2019-02-03T18:33:57.269Z,0.40
2019-02-03T18:39:02.266Z,0.20
2019-02-03T18:44:07.505Z,0.10
2019-02-03T18:49:12.507Z,-0.20
2019-02-03T18:54:17.831Z,-0.30
2019-02-03T18:59:22.859Z,-0.30
2019-02-03T19:04:27.847Z,-0.20
2019-02-03T19:09:32.848Z,-0.10
2019-02-03T19:14:46.872Z,-0.20
2019-02-03T19:19:44.500Z,-0.20
2019-02-03T19:24:49.487Z,-0.20
2019-02-03T19:29:54.504Z,-0.10
2019-02-03T19:34:59.479Z,0.10
2019-02-03T19:40:05.754Z,0.20
2019-02-03T19:45:11.675Z,0.30
2019-02-03T19:50:19.670Z,0.40
2019-02-03T19:55:24.728Z,0.30
2019-02-03T20:00:37.881Z,0.20
2019-02-03T20:05:43.412Z,0.00
2019-02-03T20:10:48.590Z,-0.10
2019-02-03T20:15:53.582Z,-0.20
2019-02-03T20:20:58.587Z,-0.30
2019-02-03T20:26:03.675Z,-0.40
2019-02-03T20:31:08.684Z,-0.50
2019-02-03T20:36:13.679Z,-0.40
2019-02-03T20:41:18.687Z,-0.30
2019-02-03T20:46:23.935Z,-0.30
2019-02-03T20:51:29.276Z,-0.40
2019-02-03T20:56:34.667Z,-0.50
2019-02-03T21:01:39.664Z,-0.60
2019-02-03T21:06:44.704Z,-0.60
2019-02-03T21:11:49.719Z,-0.60
2019-02-03T21:16:54.715Z,-0.70
2019-02-03T21:21:59.735Z,-0.90
2019-02-03T21:27:04.840Z,-1.00
2019-02-03T21:32:10.255Z,-1.10
2019-02-03T21:37:15.264Z,-1.40
2019-02-03T21:42:20.333Z,-1.60
2019-02-03T21:47:25.343Z,-1.80
2019-02-03T21:52:30.368Z,-2.00
2019-02-03T21:57:35.344Z,-2.10
2019-02-03T22:02:40.368Z,-2.20
2019-02-03T22:07:45.358Z,-2.20
2019-02-03T22:12:50.738Z,-2.40
2019-02-03T22:17:56.131Z,-2.40
2019-02-03T22:23:01.144Z,-2.40
2019-02-03T22:28:06.130Z,-2.40
2019-02-03T22:33:11.158Z,-2.50
2019-02-03T22:38:16.151Z,-2.50
2019-02-03T22:43:21.303Z,-2.60
2019-02-03T22:48:26.309Z,-2.60
2019-02-03T22:53:31.298Z,-2.40
2019-02-03T22:58:36.287Z,-2.20
2019-02-03T23:04:19.499Z,-1.90
2019-02-03T23:09:28.011Z,-2.00
2019-02-03T23:14:33.015Z,-2.00
2019-02-03T23:19:39.139Z,-2.00
2019-02-03T23:24:44.162Z,-2.00
2019-02-03T23:29:49.462Z,-2.00
2019-02-03T23:34:54.463Z,-1.80
2019-02-03T23:39:59.479Z,-1.70
2019-02-03T23:45:05.388Z,-1.80
2019-02-03T23:50:12.166Z,-1.80
2019-02-03T23:55:17.155Z,-1.80
